createdAt,value
2022-08-24T13:17:10.994Z,51
2022-08-24T13:18:11.361Z,37.35
2022-08-24T13:19:10.693Z,37.46
2022-08-24T13:20:10.895Z,37.78
2022-08-24T13:21:11.207Z,37.74
2022-08-24T13:22:10.690Z,38.00
2022-08-24T13:23:11.154Z,37.97
2022-08-24T13:24:10.535Z,37.78
2022-08-24T13:25:10.532Z,37.75
2022-08-24T13:26:10.458Z,37.60
2022-08-24T13:27:10.710Z,37.46
2022-08-24T13:28:11.752Z,37.25
2022-08-24T13:29:11.067Z,36.92
2022-08-24T13:30:11.049Z,36.66
2022-08-24T13:31:12.156Z,36.95
2022-08-24T13:32:10.791Z,37.34
2022-08-24T13:33:11.268Z,36.84
2022-08-24T13:34:10.727Z,36.24
2022-08-24T13:35:10.993Z,35.77
2022-08-24T13:36:10.595Z,35.25
2022-08-24T13:37:10.956Z,34.97
2022-08-24T13:38:10.973Z,35.18
2022-08-24T13:39:11.410Z,35.57
2022-08-24T13:40:13.713Z,35.18
2022-08-24T13:41:10.960Z,35.25
2022-08-24T13:42:11.240Z,35.47
2022-08-24T13:43:10.709Z,35.23
2022-08-24T13:44:11.280Z,35.16
2022-08-24T13:45:11.163Z,34.87
2022-08-24T13:46:16.698Z,34.77
2022-08-24T13:47:11.303Z,34.58
2022-08-24T13:48:11.170Z,34.64
2022-08-24T13:49:10.609Z,34.62
2022-08-24T13:50:11.240Z,34.61
2022-08-24T13:51:10.963Z,34.65
2022-08-24T13:52:11.351Z,34.68
2022-08-24T13:53:10.787Z,34.36
2022-08-24T13:54:24.002Z,33.90
2022-08-24T13:55:10.929Z,33.90
2022-08-24T13:56:11.320Z,33.77
2022-08-24T13:57:11.494Z,34.02
2022-08-24T13:58:11.007Z,34.07
2022-08-24T13:59:13.775Z,34.27
2022-08-24T14:00:12.628Z,34.56
2022-08-24T14:01:10.840Z,35.70
2022-08-24T14:02:11.421Z,37.06
2022-08-24T14:03:11.258Z,37.59
2022-08-24T14:04:11.144Z,37.22
2022-08-24T14:05:11.195Z,36.54
2022-08-24T14:06:10.994Z,36.18
2022-08-24T14:07:10.580Z,36.41
2022-08-24T14:08:10.799Z,37.20
2022-08-24T14:09:11.955Z,37.74
2022-08-24T14:10:11.680Z,38.33
2022-08-24T14:11:11.487Z,37.61
2022-08-24T14:12:11.210Z,37.20
2022-08-24T14:13:10.602Z,36.84
2022-08-24T14:14:13.347Z,35.93
2022-08-24T14:15:11.792Z,35.65
2022-08-24T14:16:11.958Z,36.36
2022-08-24T14:17:22.981Z,34.61
2022-08-24T14:18:11.554Z,34.61
2022-08-24T14:19:10.946Z,33.40
2022-08-24T14:20:11.753Z,33.43
2022-08-24T14:21:11.148Z,33.47
2022-08-24T14:22:10.766Z,33.17
2022-08-24T14:23:11.193Z,33.25
2022-08-24T14:24:10.816Z,33.38
2022-08-24T14:25:11.389Z,33.36
2022-08-24T14:26:11.092Z,33.28
2022-08-24T14:27:10.577Z,32.75
2022-08-24T14:28:10.967Z,32.79
2022-08-24T14:29:11.330Z,32.98
2022-08-24T14:30:11.211Z,33.04
2022-08-24T14:31:10.565Z,33.11
2022-08-24T14:32:15.762Z,32.76
2022-08-24T14:33:11.540Z,32.65
2022-08-24T14:34:10.860Z,32.54
2022-08-24T14:35:11.690Z,32.33
2022-08-24T14:36:11.216Z,32.22
2022-08-24T14:37:11.098Z,32.25
2022-08-24T14:38:16.484Z,32.50
2022-08-24T14:39:10.666Z,32.38
2022-08-24T14:40:11.590Z,32.15
2022-08-24T14:41:10.967Z,31.73
2022-08-24T14:42:11.299Z,31.86
2022-08-24T14:43:10.693Z,32.20
2022-08-24T14:44:11.098Z,32.19
2022-08-24T14:45:11.035Z,31.98
2022-08-24T14:46:10.775Z,32.13
2022-08-24T14:47:12.918Z,31.91
2022-08-24T14:48:11.197Z,31.84
2022-08-24T14:49:10.806Z,32.05
2022-08-24T14:50:16.552Z,32.20
2022-08-24T14:51:10.791Z,33.33
2022-08-24T14:52:11.362Z,33.45
2022-08-24T14:53:10.905Z,33.27
2022-08-24T14:54:11.696Z,33.74
2022-08-24T14:55:11.175Z,33.88
2022-08-24T14:56:10.780Z,34.45
2022-08-24T14:57:11.225Z,34.06
2022-08-24T14:58:10.719Z,32.93
2022-08-24T14:59:11.265Z,33.36
2022-08-24T15:00:12.017Z,33.52
2022-08-24T15:01:11.895Z,33.77
2022-08-24T15:02:16.134Z,33.97
2022-08-24T15:03:11.146Z,34.56
2022-08-24T15:04:10.886Z,34.58
2022-08-24T15:05:11.804Z,33.49
2022-08-24T15:06:29.535Z,32.61
2022-08-24T15:07:11.205Z,32.61
2022-08-24T15:08:11.608Z,32.31
2022-08-24T15:09:11.514Z,33.18
2022-08-24T15:10:11.214Z,33.86
2022-08-24T15:11:10.883Z,33.92
2022-08-24T15:12:11.326Z,33.56
2022-08-24T15:13:10.697Z,33.61
2022-08-24T15:14:10.903Z,33.90
2022-08-24T15:15:11.397Z,33.54
2022-08-24T15:16:10.808Z,33.61
2022-08-24T15:17:11.630Z,33.27
2022-08-24T15:18:13.692Z,33.20
2022-08-24T15:19:11.013Z,33.61
2022-08-24T15:20:11.549Z,32.93
2022-08-24T15:21:11.014Z,32.5
2022-08-24T15:22:10.764Z,33.27
2022-08-24T15:23:11.659Z,32.43
2022-08-24T15:24:14.148Z,31.55
2022-08-24T15:25:10.604Z,31.25
2022-08-24T15:26:11.063Z,31.30
2022-08-24T15:27:10.488Z,31.27
2022-08-24T15:28:10.855Z,31.07
2022-08-24T15:29:11.470Z,31.04
2022-08-24T15:30:11.695Z,30.91
2022-08-24T15:31:25.231Z,30.72
2022-08-24T15:32:10.933Z,30.72
2022-08-24T15:33:11.585Z,30.75
2022-08-24T15:34:10.948Z,30.87
2022-08-24T15:35:12.024Z,30.68
2022-08-24T15:36:10.725Z,30.70
2022-08-24T15:37:11.065Z,30.66
2022-08-24T15:38:10.786Z,30.87
2022-08-24T15:39:11.233Z,30.96
2022-08-24T15:40:18.287Z,30.72
2022-08-24T15:41:11.012Z,30.76
2022-08-24T15:42:10.827Z,30.92
2022-08-24T15:43:11.094Z,31.06
2022-08-24T15:44:10.818Z,31.09
2022-08-24T15:45:11.487Z,31.04
2022-08-24T15:46:11.173Z,31.24
2022-08-24T15:47:10.562Z,30.80
2022-08-24T15:48:11.111Z,30.67
2022-08-24T15:49:10.678Z,30.62
2022-08-24T15:50:11.961Z,30.56
2022-08-24T15:51:11.315Z,30.87
2022-08-24T15:52:11.098Z,31.16
2022-08-24T15:53:11.023Z,31.09
2022-08-24T15:54:10.647Z,30.78
2022-08-24T15:55:11.428Z,30.71
2022-08-24T15:56:10.885Z,30.44
2022-08-24T15:57:11.155Z,30.25
2022-08-24T15:58:10.777Z,30.41
2022-08-24T15:59:11.358Z,30.44
2022-08-24T16:00:12.045Z,30.49
2022-08-24T16:01:11.073Z,30.43
2022-08-24T16:02:11.002Z,30.65
2022-08-24T16:03:10.792Z,30.68
2022-08-24T16:04:11.503Z,30.70
2022-08-24T16:05:11.019Z,31.22
2022-08-24T16:06:10.751Z,31.55
2022-08-24T16:07:11.148Z,32.77
2022-08-24T16:08:11.005Z,33.18
2022-08-24T16:09:10.744Z,33.15
2022-08-24T16:10:11.485Z,32.75
2022-08-24T16:11:10.924Z,32.02
2022-08-24T16:12:13.997Z,32.79
2022-08-24T16:13:10.676Z,33.26
2022-08-24T16:14:11.010Z,34.18
2022-08-24T16:15:10.986Z,34.11
2022-08-24T16:16:10.496Z,34.61
2022-08-24T16:17:11.321Z,34.36
2022-08-24T16:18:10.894Z,34.11
2022-08-24T16:19:12.625Z,34.41
2022-08-24T16:20:11.549Z,34.20
2022-08-24T16:21:11.858Z,33.84
2022-08-24T16:22:11.491Z,34.00
2022-08-24T16:23:11.018Z,34.15
2022-08-24T16:24:11.017Z,34.15
2022-08-24T16:25:11.225Z,33.65
2022-08-24T16:26:11.101Z,33.63
2022-08-24T16:27:11.038Z,33.20
2022-08-24T16:28:13.821Z,32.13
2022-08-24T16:29:12.465Z,32.5
2022-08-24T16:30:13.521Z,33.00
2022-08-24T16:31:11.773Z,33
2022-08-24T16:32:22.239Z,32.24
2022-08-24T16:33:11.791Z,32.79
2022-08-24T16:34:11.822Z,32.97
2022-08-24T16:35:11.435Z,32.84
2022-08-24T16:36:10.945Z,32.75
2022-08-24T16:37:11.293Z,32.09
2022-08-24T16:38:10.979Z,31.29
2022-08-24T16:39:11.711Z,31.45
2022-08-24T16:40:11.772Z,32.18
2022-08-24T16:41:11.199Z,32.68
2022-08-24T16:42:10.906Z,33.45
2022-08-24T16:43:11.217Z,33.29
2022-08-24T16:44:10.619Z,33.22
2022-08-24T16:45:12.057Z,33.77
2022-08-24T16:46:10.988Z,33.09
2022-08-24T16:47:10.869Z,33.61
2022-08-24T16:48:11.161Z,33.79
2022-08-24T16:49:16.548Z,33.34
2022-08-24T16:50:11.493Z,33.88
2022-08-24T16:51:11.172Z,33.18
2022-08-24T16:52:11.106Z,33.36
2022-08-24T16:53:11.191Z,32.38
2022-08-24T16:54:11.123Z,33.15
2022-08-24T16:55:11.361Z,33.18
2022-08-24T16:56:14.835Z,33.24
2022-08-24T16:57:11.067Z,32.84
2022-08-24T16:58:10.746Z,33.00
2022-08-24T16:59:11.504Z,33.86
2022-08-24T17:00:12.458Z,34.90
2022-08-24T17:01:11.683Z,34.95
2022-08-24T17:02:13.547Z,33.13
2022-08-24T17:03:16.407Z,33.66
2022-08-24T17:04:11.131Z,33.75
2022-08-24T17:05:10.844Z,34.45
2022-08-24T17:06:12.062Z,35.00
2022-08-24T17:07:10.745Z,35.18
2022-08-24T17:08:10.983Z,35.16
2022-08-24T17:09:12.913Z,34.77
2022-08-24T17:10:11.624Z,34.5
2022-08-24T17:11:11.288Z,34.79
2022-08-24T17:12:11.002Z,34.89
2022-08-24T17:13:10.734Z,35.34
2022-08-24T17:14:11.118Z,35.17
2022-08-24T17:15:11.239Z,34.45
2022-08-24T17:16:11.136Z,33.90
2022-08-24T17:17:11.024Z,32.77
2022-08-24T17:18:10.940Z,33.09
2022-08-24T17:19:11.470Z,33.82
2022-08-24T17:20:09.699Z,33.83
2022-08-24T17:28:11.360Z,32.52
2022-08-24T17:49:11.927Z,36.25
2022-08-24T17:50:12.251Z,36.77
2022-08-24T17:51:11.116Z,36.86
2022-08-24T17:52:11.041Z,36.77
2022-08-24T17:53:11.175Z,36.38
2022-08-24T17:54:10.722Z,36.43
2022-08-24T17:55:11.261Z,36.43
2022-08-24T17:56:10.476Z,36.88
2022-08-24T17:57:11.153Z,37.09
2022-08-24T17:58:10.711Z,36.72
2022-08-24T17:59:11.222Z,37.14
2022-08-24T18:00:25.345Z,37.58
2022-08-24T18:01:10.903Z,37.58
2022-08-24T18:02:11.358Z,37.40
2022-08-24T18:03:15.983Z,37.75
2022-08-24T18:04:11.217Z,38.25
2022-08-24T18:05:10.973Z,38.97
2022-08-24T18:06:10.894Z,39.27
2022-08-24T18:07:25.678Z,39.72
2022-08-24T18:08:10.825Z,39.60
2022-08-24T18:09:11.107Z,39.29
2022-08-24T18:10:10.837Z,37.50
2022-08-24T18:11:11.839Z,36.77
2022-08-24T18:12:11.611Z,36.10
2022-08-24T18:13:11.156Z,35.71
2022-08-24T18:14:10.425Z,35.47
2022-08-24T18:15:11.628Z,35.63
2022-08-24T18:16:11.066Z,35.82
2022-08-24T18:17:10.658Z,36.10
2022-08-24T18:18:12.686Z,36.24
2022-08-24T18:19:11.129Z,36.23
2022-08-24T18:20:10.605Z,36.37
2022-08-24T18:21:10.925Z,36.29
2022-08-24T18:22:11.584Z,36.11
2022-08-24T18:23:21.150Z,35.87
2022-08-24T18:24:10.712Z,35.99
2022-08-24T18:25:17.176Z,36.14
2022-08-24T18:26:11.031Z,36.40
2022-08-24T18:27:14.034Z,36.25
2022-08-24T18:28:11.013Z,36.20
2022-08-24T18:29:10.751Z,36.41
2022-08-24T18:30:12.055Z,36.77
2022-08-24T18:31:11.545Z,36.79
2022-08-24T18:32:11.093Z,36.81
2022-08-24T18:33:10.606Z,36.74
2022-08-24T18:34:10.752Z,36.99
2022-08-24T18:35:11.186Z,37.07
2022-08-24T18:36:10.927Z,37.33
2022-08-24T18:37:11.500Z,37.51
2022-08-24T18:38:11.109Z,37.35
2022-08-24T18:39:11.057Z,37.50
2022-08-24T18:40:11.801Z,37.54
2022-08-24T18:41:11.297Z,37.81
2022-08-24T18:42:10.777Z,37.77
2022-08-24T18:43:11.055Z,37.78
2022-08-24T18:44:15.597Z,37.64
2022-08-24T18:45:11.235Z,37.80
2022-08-24T18:46:11.071Z,37.95
2022-08-24T18:47:11.154Z,38.25
2022-08-24T18:48:10.635Z,38.43
2022-08-24T18:49:11.197Z,38.65
2022-08-24T18:50:12.067Z,38.74
2022-08-24T18:51:10.887Z,38.84
2022-08-24T18:52:11.762Z,38.84
2022-08-24T18:53:11.076Z,38.91
2022-08-24T18:54:10.990Z,39.16
2022-08-24T18:55:11.043Z,39.30
2022-08-24T18:56:16.062Z,39.52
2022-08-24T18:57:10.886Z,40.45
2022-08-24T18:58:11.238Z,41.18
2022-08-24T18:59:10.609Z,41.47
2022-08-24T19:00:12.901Z,41.67
2022-08-24T19:01:11.607Z,41.79
2022-08-24T19:02:11.713Z,42.01
2022-08-24T19:03:11.227Z,41.96
2022-08-24T19:04:17.770Z,42.17
2022-08-24T19:05:10.903Z,42.14
2022-08-24T19:06:11.187Z,42.30
2022-08-24T19:07:11.116Z,42.44
2022-08-24T19:08:10.916Z,42.95
2022-08-24T19:09:11.397Z,43.68
2022-08-24T19:10:10.965Z,44.11
2022-08-24T19:11:11.305Z,44.23
2022-08-24T19:12:10.590Z,44.45
2022-08-24T19:13:10.924Z,44.74
2022-08-24T19:14:11.147Z,44.33
2022-08-24T19:15:39.365Z,44.29
2022-08-24T19:16:10.926Z,44.29
2022-08-24T19:17:11.704Z,44.38
2022-08-24T19:18:10.905Z,44.41
2022-08-24T19:19:11.217Z,44.66
2022-08-24T19:20:10.722Z,44.84
2022-08-24T19:21:11.063Z,44.70
2022-08-24T19:22:10.696Z,44.74
2022-08-24T19:23:11.127Z,45.03
2022-08-24T19:24:11.074Z,45.18
2022-08-24T19:25:10.824Z,45.26
2022-08-24T19:26:10.969Z,45.25
2022-08-24T19:27:11.167Z,45.49
2022-08-24T19:28:10.961Z,45.68
2022-08-24T19:29:11.259Z,45.81
2022-08-24T19:30:11.213Z,45.83
2022-08-24T19:31:11.143Z,45.78
2022-08-24T19:32:25.318Z,46.06
2022-08-24T19:33:16.803Z,46.06
2022-08-24T19:34:10.828Z,46.22
2022-08-24T19:35:11.364Z,46.51
2022-08-24T19:36:10.949Z,46.60
2022-08-24T19:37:11.158Z,46.67
2022-08-24T19:38:11.072Z,46.56
2022-08-24T19:39:11.667Z,46.47
2022-08-24T19:40:11.721Z,46.50
2022-08-24T19:41:17.561Z,46.78
2022-08-24T19:42:14.711Z,46.70
2022-08-24T19:43:12.173Z,46.26
2022-08-24T19:44:11.071Z,46.30
2022-08-24T19:45:11.761Z,46.40
2022-08-24T19:46:10.923Z,46.39
2022-08-24T19:47:11.695Z,46.43
2022-08-24T19:48:11.058Z,46.38
2022-08-24T19:49:10.877Z,46.42
2022-08-24T19:50:11.201Z,46.48
2022-08-24T19:51:10.984Z,46.56
2022-08-24T19:52:10.604Z,46.61
2022-08-24T19:53:11.238Z,46.61
2022-08-24T19:54:11.566Z,46.72
2022-08-24T19:55:11.840Z,46.88
2022-08-24T19:56:12.035Z,46.79
2022-08-24T19:57:11.116Z,46.76
2022-08-24T19:58:11.448Z,46.69
2022-08-24T19:59:12.309Z,46.65
2022-08-24T20:00:13.331Z,46.57
2022-08-24T20:01:12.283Z,46.90
2022-08-24T20:02:12.327Z,47.32
2022-08-24T20:03:13.256Z,47.53
2022-08-24T20:04:12.135Z,47.59
2022-08-24T20:05:11.923Z,47.60
2022-08-24T20:06:12.575Z,47.34
2022-08-24T20:07:11.344Z,47.48
2022-08-24T20:08:11.227Z,47.60
2022-08-24T20:09:11.828Z,47.54
2022-08-24T20:10:16.878Z,47.26
2022-08-24T20:11:11.955Z,47.34
2022-08-24T20:12:12.083Z,47.25
2022-08-24T20:13:11.417Z,47.46
2022-08-24T20:14:11.621Z,47.15
2022-08-24T20:15:12.340Z,46.93
2022-08-24T20:16:14.579Z,46.93
2022-08-24T20:17:12.606Z,46.96
2022-08-24T20:18:12.069Z,47.04
2022-08-24T20:19:11.263Z,46.98
2022-08-24T20:20:11.580Z,46.98
2022-08-24T20:21:12.340Z,47.05
2022-08-24T20:23:12.075Z,46.88
2022-08-24T20:24:11.866Z,46.99
2022-08-24T20:25:12.828Z,46.41
2022-08-24T20:26:12.777Z,45.57
2022-08-24T20:27:12.099Z,46.34
2022-08-24T20:28:37.377Z,47.02
2022-08-24T20:29:12.189Z,47.02
2022-08-24T20:30:12.389Z,47.06
2022-08-24T20:31:11.704Z,47.18
2022-08-24T20:32:13.114Z,47.19
2022-08-24T20:33:11.768Z,47.18
2022-08-24T20:34:11.912Z,47.40
2022-08-24T20:35:12.022Z,47.41
2022-08-24T20:36:11.843Z,47.47
2022-08-24T20:37:11.173Z,47.5
2022-08-24T20:38:11.650Z,47.29
2022-08-24T20:39:11.807Z,47.39
2022-08-24T20:40:12.555Z,47.54
2022-08-24T20:41:11.637Z,47.48
2022-08-24T20:43:12.628Z,47.37
2022-08-24T20:44:12.018Z,47.25
2022-08-24T20:45:11.671Z,47.22
2022-08-24T20:46:11.851Z,47.09
2022-08-24T20:47:12.057Z,46.21
2022-08-24T20:48:10.992Z,46.11
2022-08-24T20:49:15.318Z,46.16
2022-08-24T20:50:12.056Z,46.04
2022-08-24T20:51:11.489Z,46.22
2022-08-24T20:52:11.682Z,46.28
2022-08-24T20:53:11.913Z,46.76
2022-08-24T20:54:11.945Z,46.80
2022-08-24T20:55:12.329Z,47.15
2022-08-24T20:56:12.300Z,47.33
2022-08-24T20:57:11.674Z,47.36
2022-08-24T20:58:11.491Z,47.55
2022-08-24T20:59:11.889Z,47.75
2022-08-24T21:00:13.242Z,47.92
2022-08-24T21:01:11.886Z,47.88
2022-08-24T21:02:11.684Z,47.89
2022-08-24T21:03:12.025Z,47.61
2022-08-24T21:04:11.666Z,47.56
2022-08-24T21:05:11.925Z,47.59
2022-08-24T21:06:12.344Z,47.75
2022-08-24T21:07:11.522Z,47.99
2022-08-24T21:08:11.913Z,47.86
2022-08-24T21:09:18.551Z,48.15
2022-08-24T21:10:12.085Z,48.15
2022-08-24T21:11:11.368Z,48.27
2022-08-24T21:12:11.422Z,48.30
2022-08-24T21:13:11.957Z,48.20
2022-08-24T21:14:11.887Z,48.40
2022-08-24T21:15:12.844Z,48.47
2022-08-24T21:16:12.166Z,48.91
2022-08-24T21:17:11.617Z,48.79
2022-08-24T21:18:12.103Z,48.65
2022-08-24T21:19:11.522Z,48.64
2022-08-24T21:20:12.030Z,48.53
2022-08-24T21:21:11.425Z,48.49
2022-08-24T21:22:11.648Z,48.56
2022-08-24T21:23:11.903Z,48.53
2022-08-24T21:24:12.012Z,48.59
2022-08-24T21:25:11.424Z,48.55
2022-08-24T21:26:11.694Z,48.33
2022-08-24T21:27:12.076Z,48.5
2022-08-24T21:28:13.945Z,48.86
2022-08-24T21:29:11.358Z,48.94
2022-08-24T21:30:11.999Z,48.94
2022-08-24T21:31:11.674Z,48.75
2022-08-24T21:32:12.149Z,48.48
2022-08-24T21:33:11.403Z,48.60
2022-08-24T21:34:11.559Z,48.79
2022-08-24T21:35:15.348Z,48.86
2022-08-24T21:36:11.955Z,49.02
2022-08-24T21:37:13.408Z,49.20
2022-08-24T21:38:11.834Z,49.27
2022-08-24T21:39:15.049Z,49.39
2022-08-24T21:40:11.675Z,49.50
2022-08-24T21:41:11.759Z,49.37
2022-08-24T21:42:11.953Z,49.37
2022-08-24T21:43:18.892Z,49.74
2022-08-24T21:44:11.723Z,49.74
2022-08-24T21:45:12.041Z,49.68
2022-08-24T21:46:11.348Z,49.72
2022-08-24T21:47:11.548Z,49.79
2022-08-24T21:48:11.937Z,49.86
2022-08-24T21:49:16.011Z,49.88
2022-08-24T21:50:11.075Z,50.09
2022-08-24T21:51:11.417Z,50.02
2022-08-24T21:52:11.765Z,50.13
2022-08-24T21:53:12.404Z,50.31
2022-08-24T21:54:11.600Z,50.48
2022-08-24T21:55:18.339Z,50.58
2022-08-24T21:56:11.829Z,50.63
2022-08-24T21:57:11.686Z,50.79
2022-08-24T21:58:11.444Z,50.63
2022-08-24T21:59:11.352Z,50.45
2022-08-24T22:00:13.128Z,50.23
2022-08-24T22:01:11.526Z,50.15
2022-08-24T22:02:15.867Z,50.08
2022-08-24T22:03:11.953Z,50.09
2022-08-24T22:04:11.400Z,50.11
2022-08-24T22:05:11.903Z,49.80
2022-08-24T22:06:11.886Z,49.66
2022-08-24T22:07:12.278Z,49.91
2022-08-24T22:08:11.677Z,50.18
2022-08-24T22:09:11.919Z,50.13
2022-08-24T22:10:12.364Z,49.79
2022-08-24T22:11:11.548Z,49.90
2022-08-24T22:12:12.282Z,50.05
2022-08-24T22:13:12.069Z,50.21
2022-08-24T22:14:11.565Z,50.29
2022-08-24T22:15:12.655Z,50.43
2022-08-24T22:16:12.431Z,50.78
2022-08-24T22:17:11.789Z,51.29
2022-08-24T22:18:11.735Z,51.56
2022-08-24T22:19:11.883Z,51.69
2022-08-24T22:20:25.256Z,51.52
2022-08-24T22:21:11.620Z,51.52
2022-08-24T22:22:11.852Z,51.48
2022-08-24T22:23:11.760Z,51.50
2022-08-24T22:24:12.049Z,51.50
2022-08-24T22:25:11.161Z,51.47
2022-08-24T22:26:11.307Z,51.42
2022-08-24T22:27:11.634Z,51.38
2022-08-24T22:28:11.679Z,51.42
2022-08-24T22:29:11.567Z,51.47
2022-08-24T22:30:12.483Z,51.55
2022-08-24T22:31:11.734Z,51.69
2022-08-24T22:32:12.336Z,51.92
2022-08-24T22:33:11.876Z,52.08
2022-08-24T22:34:12.611Z,52.16
2022-08-24T22:35:11.807Z,52.24
2022-08-24T22:36:12.252Z,52.38
2022-08-24T22:37:11.209Z,52.38
2022-08-24T22:38:11.503Z,52.34
2022-08-24T22:39:11.820Z,52.51
2022-08-24T22:40:19.017Z,52.68
2022-08-24T22:41:11.489Z,53.01
2022-08-24T22:42:11.674Z,53.09
2022-08-24T22:43:11.700Z,53.06
2022-08-24T22:44:12.245Z,53.08
2022-08-24T22:45:11.823Z,53.12
2022-08-24T22:46:11.717Z,53.19
2022-08-24T22:47:19.091Z,53.30
2022-08-24T22:48:12.269Z,53.30
2022-08-24T22:49:11.145Z,53.40
2022-08-24T22:50:11.498Z,53.52
2022-08-24T22:51:11.404Z,53.56
2022-08-24T22:52:11.392Z,53.55
2022-08-24T22:53:11.749Z,53.71
2022-08-24T22:54:11.955Z,53.78
2022-08-24T22:55:12.177Z,53.93
2022-08-24T22:56:11.275Z,53.90
2022-08-24T22:57:11.325Z,54.11
2022-08-24T22:58:11.101Z,54.23
2022-08-24T22:59:11.162Z,54.24
2022-08-24T23:00:15.002Z,54.23
2022-08-24T23:01:11.515Z,54.29
2022-08-24T23:02:11.992Z,54.39
2022-08-24T23:03:11.227Z,54.44
2022-08-24T23:04:11.870Z,54.52
2022-08-24T23:05:11.975Z,54.54
2022-08-24T23:06:12.243Z,54.49
2022-08-24T23:07:11.254Z,54.56
2022-08-24T23:08:10.913Z,54.61
2022-08-24T23:09:11.874Z,54.64
2022-08-24T23:10:12.241Z,54.66
2022-08-24T23:11:11.225Z,54.78
2022-08-24T23:12:11.046Z,54.80
2022-08-24T23:13:10.905Z,54.77
2022-08-24T23:14:12.046Z,54.75
2022-08-24T23:15:11.701Z,54.79
2022-08-24T23:16:11.752Z,54.86
2022-08-24T23:17:11.860Z,54.74
2022-08-24T23:18:11.517Z,54.70
2022-08-24T23:19:12.508Z,54.78
2022-08-24T23:20:11.379Z,54.67
2022-08-24T23:21:11.985Z,54.29
2022-08-24T23:22:11.933Z,54.22
2022-08-24T23:23:11.725Z,54.30
2022-08-24T23:24:11.874Z,54.19
2022-08-24T23:25:11.637Z,54.40
2022-08-24T23:26:18.239Z,54.78
2022-08-24T23:27:11.238Z,54.96
2022-08-24T23:28:11.004Z,55.00
2022-08-24T23:29:10.894Z,55.02
2022-08-24T23:30:12.532Z,55.10
2022-08-24T23:31:11.554Z,55.14
2022-08-24T23:32:11.366Z,55.13
2022-08-24T23:33:11.222Z,55.19
2022-08-24T23:34:10.909Z,55.18
2022-08-24T23:35:12.052Z,55.16
2022-08-24T23:36:11.030Z,55.24
2022-08-24T23:37:11.039Z,55.39
2022-08-24T23:38:10.993Z,55.50
2022-08-24T23:39:11.065Z,55.53
2022-08-24T23:40:11.359Z,55.71
2022-08-24T23:41:11.197Z,55.94
2022-08-24T23:42:11.325Z,56.15
2022-08-24T23:43:11.142Z,56.36
2022-08-24T23:44:11.428Z,56.44
2022-08-24T23:45:15.728Z,56.52
2022-08-24T23:46:11.897Z,56.61
2022-08-24T23:47:11.642Z,56.61
2022-08-24T23:48:11.299Z,56.63
2022-08-24T23:49:11.124Z,56.62
2022-08-24T23:50:15.082Z,56.79
2022-08-24T23:51:11.089Z,56.85
2022-08-24T23:52:26.233Z,56.98
2022-08-24T23:53:11.074Z,57.07
2022-08-24T23:54:11.163Z,57.11
2022-08-24T23:55:25.582Z,57.20
2022-08-24T23:56:11.157Z,57.20
2022-08-24T23:57:11.101Z,57.34
2022-08-24T23:58:10.881Z,57.37
2022-08-24T23:59:11.761Z,57.42
